Dzhambejty, Kazakhstan
Current Conditions -  °F | °C
As of 2:00 PM on Saturday 29 Nov 2014 (Local Time) from UARR Reporting Station
Clear Clear  
Wind Chill: 13°   Ceiling: Unl
Heat Index: 21°   Visibility: 6mi
Dew Point: 12°   Wind: 7mph
Humidity: 68%   Direction: 40°NE
Pressure: 30.59"   Gusts: NA
Location:  50.25°N, 52.57°E
Report Text: UARR 291000Z 04003MPS CAVOK M06/M11 Q1036 R04/CLRD70 NOSIG RMKQFE774/1032
Loading
Personal Weather Stations






























Interactive Weather Map New forecast layout! Learn more

10-Day Weather Forecast

Advertisements
Track Severe Weather on mobile